Time;durP1;ratioP1;P1;durP2;ratioP2;P2;SDS_P1;SDS_P2;PMS_P1;PMS_P2;Temp;Humidity;BMP_temperature;BMP_pressure;BME280_temperature;BME280_humidity;BME280_pressure;Samples;Min_cycle;Max_cycle;Signal;HPM_P1;HPM_P2
2021/05/07 00:00:05;;;;;;;9.43;3.10;;;;;;;;;;5107930;27;20191;-73
2021/05/07 00:02:31;;;;;;;4.97;2.67;;;;;;;;;;5136540;27;20388;-77
2021/05/07 00:04:57;;;;;;;5.55;3.00;;;;;;;;;;5127634;27;20186;-75
2021/05/07 00:07:23;;;;;;;5.30;2.60;;;;;;;;;;5129512;27;20185;-75
2021/05/07 00:09:49;;;;;;;3.90;2.80;;;;;;;;;;5128881;27;20404;-75
2021/05/07 00:12:15;;;;;;;5.27;2.60;;;;;;;;;;5115898;28;20498;-76
2021/05/07 00:14:41;;;;;;;4.60;2.60;;;;;;;;;;5134121;27;20447;-73
2021/05/07 00:17:07;;;;;;;4.80;2.97;;;;;;;;;;5122671;27;20611;-74
2021/05/07 00:19:33;;;;;;;5.00;3.67;;;;;;;;;;5134652;27;20465;-76
2021/05/07 00:21:59;;;;;;;3.93;2.97;;;;;;;;;;5135951;27;20407;-73
2021/05/07 00:24:25;;;;;;;9.18;3.15;;;;;;;;;;5128978;27;20409;-75
2021/05/07 00:26:51;;;;;;;5.57;3.10;;;;;;;;;;5118778;27;20251;-75
2021/05/07 00:29:17;;;;;;;4.60;3.00;;;;;;;;;;5117231;27;20205;-75
2021/05/07 00:31:43;;;;;;;4.83;3.27;;;;;;;;;;5106848;27;20175;-75
2021/05/07 00:34:09;;;;;;;4.65;3.20;;;;;;;;;;5125718;27;20423;-76
2021/05/07 00:36:35;;;;;;;7.35;3.13;;;;;;;;;;5124649;27;20646;-74
2021/05/07 00:39:01;;;;;;;8.73;3.83;;;;;;;;;;5130154;27;20199;-74
2021/05/07 00:41:27;;;;;;;7.77;3.13;;;;;;;;;;5115107;28;20383;-76
2021/05/07 00:43:53;;;;;;;4.03;2.80;;;;;;;;;;5110609;27;20462;-76
2021/05/07 00:46:19;;;;;;;8.27;3.58;;;;;;;;;;5114953;28;20524;-77
2021/05/07 00:48:46;;;;;;;8.35;3.63;;;;;;;;;;5113374;28;20224;-76
2021/05/07 00:51:12;;;;;;;5.65;3.67;;;;;;;;;;5109581;28;20171;-76
2021/05/07 00:53:38;;;;;;;5.60;3.00;;;;;;;;;;5111414;27;20189;-77
2021/05/07 00:56:04;;;;;;;4.93;3.33;;;;;;;;;;5114635;28;20501;-74
2021/05/07 00:58:30;;;;;;;9.70;3.67;;;;;;;;;;5123112;27;20203;-75
2021/05/07 01:00:56;;;;;;;6.83;3.20;;;;;;;;;;5104059;28;20171;-74
2021/05/07 01:03:22;;;;;;;8.80;3.50;;;;;;;;;;5117455;27;20422;-76
2021/05/07 01:05:48;;;;;;;6.95;4.13;;;;;;;;;;5129367;27;20433;-75
2021/05/07 01:08:15;;;;;;;5.03;3.40;;;;;;;;;;5119985;27;20197;-75
2021/05/07 01:10:41;;;;;;;7.80;3.28;;;;;;;;;;5107682;27;20409;-75
2021/05/07 01:13:07;;;;;;;6.70;3.33;;;;;;;;;;5130770;27;20182;-76
2021/05/07 01:15:35;;;;;;;7.27;3.50;;;;;;;;;;5114719;28;20524;-76
2021/05/07 01:18:01;;;;;;;5.47;3.25;;;;;;;;;;5114190;28;20464;-75
2021/05/07 01:20:28;;;;;;;4.40;3.30;;;;;;;;;;5108312;28;20190;-77
2021/05/07 01:22:59;;;;;;;6.70;3.40;;;;;;;;;;5133482;27;20418;-79
2021/05/07 01:25:29;;;;;;;5.35;3.58;;;;;;;;;;5118885;27;20174;-74
2021/05/07 01:27:56;;;;;;;7.13;3.40;;;;;;;;;;5111910;28;20195;-76
2021/05/07 01:30:24;;;;;;;5.78;3.80;;;;;;;;;;5126705;27;20175;-78
2021/05/07 01:32:50;;;;;;;7.65;4.05;;;;;;;;;;5104380;28;20168;-73
2021/05/07 01:35:25;;;;;;;5.63;2.80;;;;;;;;;;5127279;27;20203;-76
2021/05/07 01:37:52;;;;;;;7.85;3.25;;;;;;;;;;5113168;27;20194;-74
2021/05/07 01:40:21;;;;;;;4.78;3.10;;;;;;;;;;5114434;27;20190;-73
2021/05/07 01:42:48;;;;;;;5.97;2.60;;;;;;;;;;5113623;28;20175;-76
2021/05/07 01:45:15;;;;;;;5.18;2.95;;;;;;;;;;5109806;28;20186;-75
2021/05/07 01:47:41;;;;;;;4.57;2.67;;;;;;;;;;5127433;27;20180;-76
2021/05/07 01:50:09;;;;;;;5.80;3.10;;;;;;;;;;5126085;27;20276;-75
2021/05/07 01:52:35;;;;;;;4.97;2.90;;;;;;;;;;5109723;28;20182;-76
2021/05/07 01:55:03;;;;;;;6.60;3.20;;;;;;;;;;5122097;27;20713;-77
2021/05/07 01:57:32;;;;;;;5.25;3.25;;;;;;;;;;5113168;28;20185;-76
2021/05/07 01:59:58;;;;;;;4.88;2.70;;;;;;;;;;5113273;28;20185;-76
2021/05/07 02:02:24;;;;;;;7.55;3.00;;;;;;;;;;5111598;27;20217;-77
2021/05/07 02:04:50;;;;;;;4.88;2.90;;;;;;;;;;5121268;27;20233;-74
2021/05/07 02:07:17;;;;;;;5.38;2.40;;;;;;;;;;5109754;28;20635;-76
2021/05/07 02:09:43;;;;;;;5.57;2.80;;;;;;;;;;5114651;28;20219;-74
2021/05/07 02:12:09;;;;;;;7.95;3.20;;;;;;;;;;5123561;27;20205;-74
2021/05/07 02:14:35;;;;;;;6.78;3.00;;;;;;;;;;5122553;28;20651;-75
2021/05/07 02:17:01;;;;;;;4.50;3.30;;;;;;;;;;5115805;28;20189;-75
2021/05/07 02:19:27;;;;;;;5.00;3.07;;;;;;;;;;5121378;28;20190;-74
2021/05/07 02:21:53;;;;;;;5.65;2.90;;;;;;;;;;5117078;28;20423;-75
2021/05/07 02:24:19;;;;;;;10.50;3.80;;;;;;;;;;5098646;28;20199;-75
2021/05/07 02:26:45;;;;;;;6.87;3.63;;;;;;;;;;5113180;28;20202;-76
2021/05/07 02:29:11;;;;;;;6.17;3.43;;;;;;;;;;5106988;28;20445;-77
2021/05/07 02:31:37;;;;;;;6.60;3.30;;;;;;;;;;5112558;28;20773;-77
2021/05/07 02:34:03;;;;;;;5.75;3.63;;;;;;;;;;5113089;28;20815;-75
2021/05/07 02:36:29;;;;;;;4.28;3.22;;;;;;;;;;5129615;27;20176;-75
2021/05/07 02:38:55;;;;;;;6.27;3.43;;;;;;;;;;5124694;27;20190;-74
2021/05/07 02:41:21;;;;;;;8.02;3.50;;;;;;;;;;5123180;27;20484;-73
2021/05/07 02:43:47;;;;;;;4.40;2.90;;;;;;;;;;5122903;27;20178;-75
2021/05/07 02:46:16;;;;;;;7.00;3.10;;;;;;;;;;5117016;28;20175;-73
2021/05/07 02:48:42;;;;;;;3.85;2.45;;;;;;;;;;5111589;28;20191;-74
2021/05/07 02:51:08;;;;;;;5.53;3.00;;;;;;;;;;5116005;28;20178;-75
2021/05/07 02:53:35;;;;;;;4.47;2.80;;;;;;;;;;5117155;28;20419;-76
2021/05/07 02:56:01;;;;;;;6.70;3.20;;;;;;;;;;5111905;28;20477;-75
2021/05/07 02:58:27;;;;;;;5.82;3.30;;;;;;;;;;5117017;28;20225;-76
2021/05/07 03:00:53;;;;;;;6.63;4.13;;;;;;;;;;5110424;28;20191;-74
2021/05/07 03:03:19;;;;;;;6.95;3.88;;;;;;;;;;5116959;28;20416;-76
2021/05/07 03:05:44;;;;;;;8.73;4.07;;;;;;;;;;5129974;27;20201;-76
2021/05/07 03:08:10;;;;;;;4.33;3.80;;;;;;;;;;5116776;28;20536;-75
2021/05/07 03:10:36;;;;;;;4.20;3.30;;;;;;;;;;5131387;27;20480;-77
2021/05/07 03:13:04;;;;;;;6.97;3.45;;;;;;;;;;5118154;27;20552;-76
2021/05/07 03:15:30;;;;;;;4.30;3.17;;;;;;;;;;5126074;27;20198;-75
2021/05/07 03:17:56;;;;;;;4.65;3.45;;;;;;;;;;5114535;28;20208;-76
2021/05/07 03:20:23;;;;;;;4.95;3.30;;;;;;;;;;5128859;27;20208;-74
2021/05/07 03:22:49;;;;;;;3.95;2.95;;;;;;;;;;5116363;28;20189;-74
2021/05/07 03:25:15;;;;;;;6.05;3.45;;;;;;;;;;5118823;27;20175;-75
2021/05/07 03:27:41;;;;;;;5.75;3.45;;;;;;;;;;5126811;27;20637;-75
2021/05/07 03:30:07;;;;;;;7.40;3.67;;;;;;;;;;5129514;27;20178;-76
2021/05/07 03:32:33;;;;;;;8.65;3.65;;;;;;;;;;5120839;27;20579;-75
2021/05/07 03:34:59;;;;;;;5.73;3.40;;;;;;;;;;5130749;27;20366;-76
2021/05/07 03:37:25;;;;;;;6.85;3.00;;;;;;;;;;5135403;27;20755;-75
2021/05/07 03:39:51;;;;;;;4.27;3.30;;;;;;;;;;5105795;27;20168;-74
2021/05/07 03:42:17;;;;;;;5.90;3.17;;;;;;;;;;5119209;27;20423;-74
2021/05/07 03:44:43;;;;;;;5.63;3.13;;;;;;;;;;5113103;27;20184;-76
2021/05/07 03:47:09;;;;;;;3.55;3.20;;;;;;;;;;5126290;27;20912;-77
2021/05/07 03:49:35;;;;;;;3.40;2.70;;;;;;;;;;5117813;27;20198;-75
2021/05/07 03:52:01;;;;;;;4.53;3.20;;;;;;;;;;5112959;28;20418;-76
2021/05/07 03:54:28;;;;;;;6.17;3.60;;;;;;;;;;5103162;27;20457;-77
2021/05/07 03:56:54;;;;;;;4.55;3.17;;;;;;;;;;5115943;28;20449;-75
2021/05/07 03:59:20;;;;;;;6.67;4.07;;;;;;;;;;5117402;27;20269;-75
2021/05/07 04:01:46;;;;;;;3.93;3.03;;;;;;;;;;5117412;27;20479;-75
2021/05/07 04:04:12;;;;;;;4.97;3.00;;;;;;;;;;5127623;27;20779;-76
2021/05/07 04:06:38;;;;;;;6.30;3.13;;;;;;;;;;5128150;27;20642;-76
2021/05/07 04:09:14;;;;;;;6.32;3.72;;;;;;;;;;5112165;27;20207;-74
2021/05/07 04:11:53;;;;;;;3.70;2.65;;;;;;;;;;5133443;27;20241;-74
2021/05/07 04:14:19;;;;;;;4.72;3.00;;;;;;;;;;5123020;27;20194;-74
2021/05/07 04:16:45;;;;;;;4.78;3.05;;;;;;;;;;5107213;27;20175;-75
2021/05/07 04:19:11;;;;;;;4.17;2.70;;;;;;;;;;5119608;27;20693;-75
2021/05/07 04:21:37;;;;;;;3.47;2.93;;;;;;;;;;5106021;27;21033;-75
2021/05/07 04:24:03;;;;;;;3.87;2.87;;;;;;;;;;5118531;27;20880;-75
2021/05/07 04:26:29;;;;;;;3.92;3.17;;;;;;;;;;5107409;27;20446;-74
2021/05/07 04:28:55;;;;;;;3.78;2.50;;;;;;;;;;5114922;28;20204;-75
2021/05/07 04:31:21;;;;;;;4.17;2.90;;;;;;;;;;5127756;27;20170;-74
2021/05/07 04:33:48;;;;;;;4.45;2.80;;;;;;;;;;5111700;27;20427;-75
2021/05/07 04:36:14;;;;;;;4.45;2.85;;;;;;;;;;5135800;27;20256;-74
2021/05/07 04:38:40;;;;;;;3.70;3.22;;;;;;;;;;5119465;27;20206;-74
2021/05/07 04:41:06;;;;;;;3.83;3.25;;;;;;;;;;5135736;27;20656;-74
2021/05/07 04:43:32;;;;;;;9.33;3.33;;;;;;;;;;5107853;27;20253;-73
2021/05/07 04:45:58;;;;;;;5.53;3.75;;;;;;;;;;5135845;27;20421;-76
2021/05/07 04:48:24;;;;;;;4.17;3.70;;;;;;;;;;5110582;27;20245;-75
2021/05/07 04:50:50;;;;;;;7.55;4.00;;;;;;;;;;5112624;28;20407;-74
2021/05/07 04:53:16;;;;;;;4.95;3.72;;;;;;;;;;5113000;27;20572;-74
2021/05/07 04:55:42;;;;;;;7.70;3.73;;;;;;;;;;5117640;27;20195;-75
2021/05/07 04:58:08;;;;;;;6.57;3.67;;;;;;;;;;5120186;27;20435;-74
2021/05/07 05:00:34;;;;;;;4.45;4.05;;;;;;;;;;5134325;27;20756;-75
2021/05/07 05:03:00;;;;;;;5.00;2.90;;;;;;;;;;5127459;27;20707;-74
2021/05/07 05:05:26;;;;;;;5.32;3.75;;;;;;;;;;5111743;27;20229;-75
2021/05/07 05:07:52;;;;;;;3.73;3.40;;;;;;;;;;5121800;27;20273;-75
2021/05/07 05:10:21;;;;;;;5.95;4.18;;;;;;;;;;5118067;27;20507;-76
2021/05/07 05:12:47;;;;;;;6.22;3.60;;;;;;;;;;5127039;27;20181;-74
2021/05/07 05:15:14;;;;;;;5.13;3.70;;;;;;;;;;5129381;27;20198;-76
2021/05/07 05:17:40;;;;;;;7.15;4.18;;;;;;;;;;5134453;27;20223;-75
2021/05/07 05:20:07;;;;;;;4.65;3.55;;;;;;;;;;5128189;27;20184;-76
2021/05/07 05:22:33;;;;;;;6.45;3.40;;;;;;;;;;5128709;27;20186;-74
2021/05/07 05:25:04;;;;;;;5.20;4.13;;;;;;;;;;5111682;28;20171;-74
2021/05/07 05:27:30;;;;;;;5.70;3.85;;;;;;;;;;5104466;28;20531;-74
2021/05/07 05:29:56;;;;;;;7.10;4.38;;;;;;;;;;5113991;28;20524;-74
2021/05/07 05:32:24;;;;;;;6.20;4.20;;;;;;;;;;5111008;28;20200;-74
2021/05/07 05:34:51;;;;;;;5.07;3.65;;;;;;;;;;5121966;27;20804;-74
2021/05/07 05:37:17;;;;;;;7.05;4.60;;;;;;;;;;5103409;27;20254;-75
2021/05/07 05:39:42;;;;;;;8.70;4.93;;;;;;;;;;5122591;27;20266;-74
2021/05/07 05:42:08;;;;;;;6.80;4.10;;;;;;;;;;5124606;27;20903;-75
2021/05/07 05:44:34;;;;;;;5.28;4.55;;;;;;;;;;5112480;28;20424;-75
2021/05/07 05:47:00;;;;;;;5.07;4.57;;;;;;;;;;5116259;27;20534;-75
2021/05/07 05:49:26;;;;;;;4.83;4.43;;;;;;;;;;5132975;27;20544;-74
2021/05/07 05:51:52;;;;;;;4.80;4.30;;;;;;;;;;5113318;28;20402;-75
2021/05/07 05:54:18;;;;;;;4.63;4.17;;;;;;;;;;5113326;28;20433;-76
2021/05/07 05:56:44;;;;;;;5.10;4.10;;;;;;;;;;5113863;28;20474;-76
2021/05/07 05:59:10;;;;;;;4.03;3.58;;;;;;;;;;5113113;28;20198;-75
2021/05/07 06:01:36;;;;;;;5.17;4.13;;;;;;;;;;5118999;27;20177;-76
2021/05/07 06:04:02;;;;;;;6.60;4.30;;;;;;;;;;5108062;28;20481;-76
2021/05/07 06:06:28;;;;;;;4.88;4.15;;;;;;;;;;5121292;28;20919;-76
2021/05/07 06:08:54;;;;;;;4.50;3.80;;;;;;;;;;5110921;28;20201;-76
2021/05/07 06:11:20;;;;;;;4.30;3.83;;;;;;;;;;5111797;28;20424;-75
2021/05/07 06:13:46;;;;;;;4.60;4.00;;;;;;;;;;5126244;27;20646;-75
2021/05/07 06:16:12;;;;;;;5.13;4.50;;;;;;;;;;5113161;28;20929;-74
2021/05/07 06:18:38;;;;;;;11.77;7.33;;;;;;;;;;5111943;28;20423;-74
2021/05/07 06:21:04;;;;;;;4.17;3.87;;;;;;;;;;5133897;28;20430;-76
2021/05/07 06:23:30;;;;;;;4.72;3.90;;;;;;;;;;5132490;28;20398;-76
2021/05/07 06:25:56;;;;;;;4.65;3.25;;;;;;;;;;5111670;28;20181;-77
2021/05/07 06:28:22;;;;;;;4.53;3.87;;;;;;;;;;5111135;28;20543;-76
2021/05/07 06:30:48;;;;;;;4.10;3.70;;;;;;;;;;5113275;28;20402;-76
2021/05/07 06:33:14;;;;;;;4.45;3.63;;;;;;;;;;5113972;28;20166;-76
2021/05/07 06:35:40;;;;;;;4.77;3.70;;;;;;;;;;5133685;28;20684;-76
2021/05/07 06:38:09;;;;;;;7.43;4.20;;;;;;;;;;5116755;28;20891;-77
2021/05/07 06:40:35;;;;;;;4.78;4.38;;;;;;;;;;5134183;28;20739;-77
2021/05/07 06:43:02;;;;;;;5.32;4.80;;;;;;;;;;5113238;28;20273;-75
2021/05/07 06:45:28;;;;;;;6.78;5.00;;;;;;;;;;5117975;28;20184;-76
2021/05/07 06:47:54;;;;;;;6.20;5.70;;;;;;;;;;5112758;28;20310;-75
2021/05/07 06:50:21;;;;;;;6.67;4.60;;;;;;;;;;5109936;28;20262;-75
2021/05/07 06:52:47;;;;;;;6.80;5.00;;;;;;;;;;5108528;28;21041;-77
2021/05/07 06:55:13;;;;;;;5.00;4.50;;;;;;;;;;5110353;28;20197;-76
2021/05/07 06:57:40;;;;;;;7.13;5.07;;;;;;;;;;5123640;28;20415;-75
2021/05/07 07:00:09;;;;;;;5.32;4.93;;;;;;;;;;5110231;28;20181;-77
2021/05/07 07:02:35;;;;;;;7.75;5.20;;;;;;;;;;5109898;28;20182;-76
2021/05/07 07:05:02;;;;;;;5.63;5.13;;;;;;;;;;5118357;28;20194;-77
2021/05/07 07:07:28;;;;;;;6.47;4.88;;;;;;;;;;5123306;28;20546;-77
2021/05/07 07:09:54;;;;;;;7.55;4.93;;;;;;;;;;5118085;28;20170;-76
2021/05/07 07:12:21;;;;;;;5.13;4.57;;;;;;;;;;5129802;28;20234;-76
2021/05/07 07:14:47;;;;;;;7.75;4.15;;;;;;;;;;5119691;28;20875;-75
2021/05/07 07:17:13;;;;;;;5.70;5.18;;;;;;;;;;5109401;28;20183;-76
2021/05/07 07:19:39;;;;;;;5.10;4.70;;;;;;;;;;5106717;28;20567;-75
2021/05/07 07:22:08;;;;;;;4.70;4.20;;;;;;;;;;5105928;28;20186;-74
2021/05/07 07:24:34;;;;;;;5.80;4.75;;;;;;;;;;5120252;27;20431;-76
2021/05/07 07:27:00;;;;;;;5.47;4.55;;;;;;;;;;5112786;27;20172;-76
2021/05/07 07:29:26;;;;;;;4.60;4.03;;;;;;;;;;5111055;28;20240;-76
2021/05/07 07:31:52;;;;;;;4.45;3.95;;;;;;;;;;5113897;27;20549;-75
2021/05/07 07:34:19;;;;;;;5.53;4.27;;;;;;;;;;5122708;27;20190;-75
2021/05/07 07:36:47;;;;;;;4.68;4.28;;;;;;;;;;5111970;27;20426;-76
2021/05/07 07:39:14;;;;;;;5.05;4.55;;;;;;;;;;5121541;27;20191;-78
2021/05/07 07:41:40;;;;;;;4.53;4.13;;;;;;;;;;5127250;27;20182;-76
2021/05/07 07:44:06;;;;;;;5.20;4.20;;;;;;;;;;5121026;27;20182;-76
2021/05/07 07:46:32;;;;;;;5.28;4.20;;;;;;;;;;5142755;27;20186;-77
2021/05/07 07:48:58;;;;;;;4.87;4.20;;;;;;;;;;5119584;27;20201;-76
2021/05/07 07:51:30;;;;;;;3.77;3.47;;;;;;;;;;5110964;28;20974;-75
2021/05/07 07:53:56;;;;;;;6.82;4.10;;;;;;;;;;5112112;28;20928;-77
2021/05/07 07:56:22;;;;;;;4.03;3.38;;;;;;;;;;5116414;27;20179;-75
2021/05/07 07:58:48;;;;;;;4.75;3.50;;;;;;;;;;5102977;28;20194;-76
2021/05/07 08:01:15;;;;;;;3.53;3.10;;;;;;;;;;5116217;27;20664;-75
2021/05/07 08:03:40;;;;;;;5.32;3.58;;;;;;;;;;5120529;27;20444;-75
2021/05/07 08:06:06;;;;;;;3.93;3.20;;;;;;;;;;5110412;28;20233;-75
2021/05/07 08:08:32;;;;;;;3.30;2.78;;;;;;;;;;5123465;27;20440;-76
2021/05/07 08:10:58;;;;;;;3.77;3.00;;;;;;;;;;5128491;27;20188;-76
2021/05/07 08:13:24;;;;;;;3.03;2.73;;;;;;;;;;5128731;27;20408;-76
2021/05/07 08:15:50;;;;;;;3.97;2.77;;;;;;;;;;5104217;27;20463;-76
2021/05/07 08:18:16;;;;;;;3.83;2.47;;;;;;;;;;5132284;27;20423;-77
2021/05/07 08:20:42;;;;;;;3.15;2.50;;;;;;;;;;5113447;27;20452;-76
2021/05/07 08:23:08;;;;;;;4.20;2.73;;;;;;;;;;5116116;27;20198;-76
2021/05/07 08:25:35;;;;;;;4.15;2.85;;;;;;;;;;5111518;27;20428;-75
2021/05/07 08:28:01;;;;;;;2.75;2.40;;;;;;;;;;5112537;27;20206;-75
2021/05/07 08:30:27;;;;;;;3.05;2.28;;;;;;;;;;5111541;28;20321;-77
2021/05/07 08:32:53;;;;;;;3.97;3.03;;;;;;;;;;5110231;28;20186;-77
2021/05/07 08:35:19;;;;;;;4.53;4.13;;;;;;;;;;5104009;27;20193;-76
2021/05/07 08:37:45;;;;;;;2.88;2.58;;;;;;;;;;5113151;27;20226;-76
2021/05/07 08:40:15;;;;;;;3.00;2.15;;;;;;;;;;5110909;28;20213;-76
2021/05/07 08:42:41;;;;;;;3.40;2.40;;;;;;;;;;5116636;27;20190;-75
2021/05/07 08:45:08;;;;;;;7.07;6.38;;;;;;;;;;5112991;27;20181;-75
2021/05/07 08:47:34;;;;;;;2.40;1.98;;;;;;;;;;5110694;28;20267;-77
2021/05/07 08:50:01;;;;;;;2.30;1.67;;;;;;;;;;5115968;27;20704;-76
2021/05/07 08:52:27;;;;;;;2.80;2.30;;;;;;;;;;5119651;27;20192;-76
2021/05/07 08:54:55;;;;;;;3.33;2.20;;;;;;;;;;5109106;27;20206;-77
2021/05/07 08:57:21;;;;;;;3.72;2.10;;;;;;;;;;5103642;27;20220;-75
2021/05/07 08:59:47;;;;;;;2.33;1.67;;;;;;;;;;5100526;28;20203;-75
2021/05/07 09:02:23;;;;;;;2.13;1.50;;;;;;;;;;5108465;28;20696;-75
2021/05/07 09:04:50;;;;;;;2.10;1.40;;;;;;;;;;5108600;28;20182;-76
2021/05/07 09:07:16;;;;;;;3.58;1.90;;;;;;;;;;5123017;27;20292;-75
2021/05/07 09:09:50;;;;;;;2.10;1.70;;;;;;;;;;5111077;27;20920;-76
2021/05/07 09:12:24;;;;;;;2.40;1.70;;;;;;;;;;5115111;27;20416;-76
2021/05/07 09:14:50;;;;;;;3.35;1.58;;;;;;;;;;5121370;27;20293;-77
2021/05/07 09:17:18;;;;;;;2.30;1.80;;;;;;;;;;5113384;27;20250;-75
2021/05/07 09:19:44;;;;;;;2.30;1.60;;;;;;;;;;5124165;27;20436;-76
2021/05/07 09:22:10;;;;;;;3.17;2.00;;;;;;;;;;5126544;27;20193;-76
2021/05/07 09:24:37;;;;;;;2.60;1.90;;;;;;;;;;5110119;28;20445;-76
2021/05/07 09:27:04;;;;;;;2.38;1.80;;;;;;;;;;5110835;27;20465;-76
2021/05/07 09:29:31;;;;;;;2.95;2.00;;;;;;;;;;5108805;28;20202;-77
2021/05/07 09:32:00;;;;;;;2.25;1.60;;;;;;;;;;5111847;27;20650;-76
2021/05/07 09:34:26;;;;;;;2.90;1.70;;;;;;;;;;5115758;27;20236;-76
2021/05/07 09:36:52;;;;;;;2.35;1.70;;;;;;;;;;5127892;27;20209;-77
2021/05/07 09:39:25;;;;;;;3.27;1.83;;;;;;;;;;5117892;27;20277;-77
2021/05/07 09:41:52;;;;;;;3.00;1.80;;;;;;;;;;5110252;28;20375;-76
2021/05/07 09:44:22;;;;;;;2.28;1.60;;;;;;;;;;5101835;28;20244;-77
2021/05/07 09:46:49;;;;;;;2.47;1.85;;;;;;;;;;5127314;27;20587;-76
2021/05/07 09:49:24;;;;;;;3.30;2.00;;;;;;;;;;5117987;27;20206;-76
2021/05/07 09:51:50;;;;;;;5.03;2.00;;;;;;;;;;5116728;27;20185;-75
2021/05/07 09:54:16;;;;;;;3.00;1.80;;;;;;;;;;5112903;27;20202;-75
2021/05/07 09:56:42;;;;;;;2.75;1.85;;;;;;;;;;5123423;27;20181;-76
2021/05/07 09:59:09;;;;;;;2.42;2.00;;;;;;;;;;5111737;27;20200;-76
2021/05/07 10:01:35;;;;;;;2.70;1.60;;;;;;;;;;5106380;28;20176;-76
2021/05/07 10:04:01;;;;;;;3.67;1.80;;;;;;;;;;5116520;27;20197;-76
2021/05/07 10:06:28;;;;;;;2.25;1.30;;;;;;;;;;5106427;28;20187;-76
2021/05/07 10:08:54;;;;;;;2.50;1.60;;;;;;;;;;5125371;27;20198;-75
2021/05/07 10:11:23;;;;;;;2.88;1.98;;;;;;;;;;5102255;27;20195;-76
2021/05/07 10:13:51;;;;;;;3.20;1.50;;;;;;;;;;5120891;27;20278;-76
2021/05/07 10:16:29;;;;;;;2.45;1.40;;;;;;;;;;5111857;27;20220;-77
2021/05/07 10:19:05;;;;;;;2.40;1.60;;;;;;;;;;5101967;28;20236;-76
2021/05/07 10:21:36;;;;;;;3.03;1.30;;;;;;;;;;5109666;28;20174;-77
2021/05/07 10:24:02;;;;;;;1.88;1.35;;;;;;;;;;5109325;28;20262;-77
2021/05/07 10:26:42;;;;;;;3.50;1.70;;;;;;;;;;5108205;28;20173;-76
2021/05/07 10:29:15;;;;;;;2.38;1.80;;;;;;;;;;5108384;28;20201;-77
2021/05/07 10:31:45;;;;;;;2.38;1.67;;;;;;;;;;5109573;28;20175;-76
2021/05/07 10:34:11;;;;;;;4.05;1.80;;;;;;;;;;5104032;28;20190;-77
2021/05/07 10:36:38;;;;;;;2.60;1.85;;;;;;;;;;5124428;28;20190;-77
2021/05/07 10:39:04;;;;;;;2.28;1.83;;;;;;;;;;5107788;28;20205;-77
2021/05/07 10:41:34;;;;;;;2.58;1.65;;;;;;;;;;5110088;28;20182;-76
2021/05/07 10:44:00;;;;;;;2.45;2.00;;;;;;;;;;5110805;28;20179;-77
2021/05/07 10:46:26;;;;;;;3.17;2.38;;;;;;;;;;5110336;28;20174;-77
2021/05/07 10:48:53;;;;;;;2.50;2.10;;;;;;;;;;5109639;28;20206;-77
2021/05/07 10:51:19;;;;;;;2.50;2.28;;;;;;;;;;5111617;28;20183;-76
2021/05/07 10:53:45;;;;;;;5.13;2.20;;;;;;;;;;5116480;28;20178;-77
2021/05/07 10:56:16;;;;;;;2.53;2.15;;;;;;;;;;5114121;28;20211;-77
2021/05/07 10:58:42;;;;;;;2.92;2.13;;;;;;;;;;5111636;28;20609;-77
2021/05/07 11:01:21;;;;;;;5.00;2.10;;;;;;;;;;5112750;28;20186;-77
2021/05/07 11:03:59;;;;;;;3.05;2.17;;;;;;;;;;5126890;27;20414;-75
2021/05/07 11:06:46;;;;;;;3.25;2.20;;;;;;;;;;5111952;27;20201;-76
2021/05/07 11:09:18;;;;;;;3.53;1.80;;;;;;;;;;5112897;27;20691;-76
2021/05/07 11:11:46;;;;;;;3.45;1.80;;;;;;;;;;5109451;28;20189;-76
2021/05/07 11:14:15;;;;;;;3.50;2.00;;;;;;;;;;5119900;27;20193;-76
2021/05/07 11:16:45;;;;;;;2.53;1.50;;;;;;;;;;5112354;28;20174;-75
2021/05/07 11:19:24;;;;;;;2.30;1.70;;;;;;;;;;5112000;28;20685;-75
2021/05/07 11:22:01;;;;;;;2.57;1.80;;;;;;;;;;5110039;28;20402;-77
2021/05/07 11:24:47;;;;;;;2.70;1.50;;;;;;;;;;5111104;28;20422;-77
2021/05/07 11:27:19;;;;;;;2.70;1.63;;;;;;;;;;5108964;28;20445;-76
2021/05/07 11:29:45;;;;;;;2.40;1.83;;;;;;;;;;5112318;28;20440;-77
2021/05/07 11:32:23;;;;;;;2.60;1.53;;;;;;;;;;5102680;28;20420;-77
2021/05/07 11:34:50;;;;;;;2.58;1.60;;;;;;;;;;5112269;28;20460;-77
2021/05/07 11:37:16;;;;;;;3.03;1.93;;;;;;;;;;5112685;28;20190;-77
2021/05/07 11:39:42;;;;;;;3.10;1.60;;;;;;;;;;5108591;28;21086;-77
2021/05/07 11:42:10;;;;;;;3.03;1.90;;;;;;;;;;5107091;28;20457;-77
2021/05/07 11:44:46;;;;;;;2.30;1.80;;;;;;;;;;5110877;28;20504;-77
2021/05/07 11:47:12;;;;;;;2.22;1.63;;;;;;;;;;5106680;27;20279;-76
2021/05/07 11:49:39;;;;;;;8.53;1.80;;;;;;;;;;5111643;28;20285;-76
2021/05/07 11:52:05;;;;;;;2.20;1.60;;;;;;;;;;5112356;28;20486;-77
2021/05/07 11:54:38;;;;;;;3.38;2.00;;;;;;;;;;5110409;28;20205;-76
2021/05/07 11:57:04;;;;;;;4.38;3.28;;;;;;;;;;5109238;28;20179;-77
2021/05/07 11:59:30;;;;;;;2.47;1.83;;;;;;;;;;5107162;28;20202;-77
2021/05/07 12:02:02;;;;;;;2.72;2.42;;;;;;;;;;5107967;28;20252;-73
2021/05/07 12:04:28;;;;;;;3.30;2.00;;;;;;;;;;5111576;28;20184;-76
2021/05/07 12:06:54;;;;;;;4.37;2.00;;;;;;;;;;5112264;28;20197;-76
2021/05/07 12:09:20;;;;;;;2.97;2.23;;;;;;;;;;5111272;28;20489;-76
2021/05/07 12:11:55;;;;;;;4.60;3.13;;;;;;;;;;5110912;28;20435;-77
2021/05/07 12:14:21;;;;;;;3.40;1.90;;;;;;;;;;5112866;27;20455;-76
2021/05/07 12:16:47;;;;;;;3.00;2.67;;;;;;;;;;5110412;28;20178;-76
2021/05/07 12:19:19;;;;;;;4.97;2.30;;;;;;;;;;5111522;28;20984;-72
2021/05/07 12:21:46;;;;;;;3.20;2.20;;;;;;;;;;5112193;28;20420;-74
2021/05/07 12:24:13;;;;;;;3.92;2.30;;;;;;;;;;5111581;28;20186;-74
2021/05/07 12:26:49;;;;;;;3.70;2.22;;;;;;;;;;5110171;27;20185;-77
2021/05/07 12:29:16;;;;;;;3.22;2.00;;;;;;;;;;5107751;27;20201;-77
2021/05/07 12:31:42;;;;;;;3.55;1.80;;;;;;;;;;5113648;27;20573;-77
2021/05/07 12:34:14;;;;;;;5.93;3.30;;;;;;;;;;5112076;27;20185;-77
2021/05/07 12:36:41;;;;;;;2.80;1.92;;;;;;;;;;5132475;27;20189;-78
2021/05/07 12:39:08;;;;;;;2.92;1.88;;;;;;;;;;5112119;27;20199;-77
2021/05/07 12:41:34;;;;;;;3.30;1.83;;;;;;;;;;5132173;27;20178;-77
2021/05/07 12:44:00;;;;;;;2.53;1.80;;;;;;;;;;5129507;27;20189;-75
2021/05/07 12:46:26;;;;;;;3.10;1.90;;;;;;;;;;5115788;27;20402;-75
2021/05/07 12:48:53;;;;;;;2.50;1.70;;;;;;;;;;5123159;27;20431;-77
2021/05/07 12:51:20;;;;;;;3.05;1.85;;;;;;;;;;5128835;27;20253;-77
2021/05/07 12:53:47;;;;;;;3.42;1.95;;;;;;;;;;5120806;27;20255;-77
2021/05/07 12:56:16;;;;;;;3.97;1.95;;;;;;;;;;5110951;28;20214;-77
2021/05/07 12:58:42;;;;;;;6.30;2.65;;;;;;;;;;5127893;27;20285;-75
2021/05/07 13:01:10;;;;;;;3.00;2.20;;;;;;;;;;5124499;27;20709;-78
2021/05/07 13:03:36;;;;;;;2.85;1.80;;;;;;;;;;5131272;27;20176;-78
2021/05/07 13:06:02;;;;;;;2.58;1.90;;;;;;;;;;5119661;27;20201;-76
2021/05/07 13:08:28;;;;;;;3.72;2.13;;;;;;;;;;5124838;27;20222;-76
2021/05/07 13:10:54;;;;;;;2.60;2.07;;;;;;;;;;5124451;27;20236;-76
2021/05/07 13:13:20;;;;;;;3.40;1.83;;;;;;;;;;5130089;27;20814;-76
2021/05/07 13:15:46;;;;;;;6.82;5.10;;;;;;;;;;5111382;27;20213;-77
2021/05/07 13:18:12;;;;;;;5.90;3.13;;;;;;;;;;5130841;27;20247;-76
2021/05/07 13:20:39;;;;;;;5.57;1.80;;;;;;;;;;5117067;27;20419;-76
2021/05/07 13:23:06;;;;;;;2.85;1.70;;;;;;;;;;5124683;27;20181;-76
2021/05/07 13:25:32;;;;;;;2.95;1.77;;;;;;;;;;5123723;27;20181;-77
2021/05/07 13:27:58;;;;;;;3.28;2.08;;;;;;;;;;5121728;27;20851;-76
2021/05/07 13:30:25;;;;;;;4.67;2.03;;;;;;;;;;5108911;28;20240;-76
2021/05/07 13:32:51;;;;;;;3.85;2.35;;;;;;;;;;5125298;27;20419;-76
2021/05/07 13:35:18;;;;;;;4.47;2.33;;;;;;;;;;5122048;27;20202;-77
2021/05/07 13:37:46;;;;;;;3.75;2.90;;;;;;;;;;5109970;28;20185;-77
2021/05/07 13:40:13;;;;;;;4.05;2.30;;;;;;;;;;5100690;27;20183;-76
2021/05/07 13:42:39;;;;;;;3.40;2.70;;;;;;;;;;5121417;27;20626;-76
2021/05/07 13:45:06;;;;;;;2.73;2.17;;;;;;;;;;5120608;27;20236;-77
2021/05/07 13:47:32;;;;;;;3.55;2.40;;;;;;;;;;5122822;27;20492;-76
2021/05/07 13:49:58;;;;;;;3.33;2.20;;;;;;;;;;5114298;27;20640;-76
2021/05/07 13:52:24;;;;;;;3.00;2.20;;;;;;;;;;5121298;27;20407;-76
2021/05/07 13:54:50;;;;;;;7.10;2.17;;;;;;;;;;5117575;27;20457;-78
2021/05/07 13:57:16;;;;;;;4.20;2.10;;;;;;;;;;5121527;27;20817;-77
2021/05/07 13:59:42;;;;;;;3.63;2.20;;;;;;;;;;5120527;27;20243;-76
2021/05/07 14:02:08;;;;;;;3.27;2.00;;;;;;;;;;5112125;28;20416;-76
2021/05/07 14:04:34;;;;;;;2.75;1.70;;;;;;;;;;5114792;27;20444;-76
2021/05/07 14:07:01;;;;;;;2.30;1.90;;;;;;;;;;5107831;27;20175;-76
2021/05/07 14:09:27;;;;;;;2.22;1.70;;;;;;;;;;5118143;27;20664;-77
2021/05/07 14:11:55;;;;;;;5.30;1.63;;;;;;;;;;5120991;27;20173;-76
2021/05/07 14:14:21;;;;;;;1.90;1.10;;;;;;;;;;5118894;27;20189;-76
2021/05/07 14:16:47;;;;;;;2.30;1.60;;;;;;;;;;5125612;27;20178;-77
2021/05/07 14:19:14;;;;;;;2.20;1.48;;;;;;;;;;5120432;28;20542;-76
2021/05/07 14:21:41;;;;;;;3.67;1.60;;;;;;;;;;5112357;28;20261;-77
2021/05/07 14:24:08;;;;;;;3.40;1.58;;;;;;;;;;5114864;28;20214;-76
2021/05/07 14:26:34;;;;;;;2.72;1.70;;;;;;;;;;5122345;28;20177;-77
2021/05/07 14:29:00;;;;;;;2.20;1.40;;;;;;;;;;5112882;28;20241;-77
2021/05/07 14:31:26;;;;;;;4.45;1.52;;;;;;;;;;5104000;27;20319;-77
2021/05/07 14:33:52;;;;;;;1.90;1.30;;;;;;;;;;5134208;27;20713;-76
2021/05/07 14:36:18;;;;;;;3.40;1.52;;;;;;;;;;5124214;27;20472;-77
2021/05/07 14:38:45;;;;;;;3.80;1.50;;;;;;;;;;5113477;28;20801;-77
2021/05/07 14:41:11;;;;;;;4.25;1.83;;;;;;;;;;5113798;27;20898;-76